sensor_id;sensor_type;location;lat;lon;timestamp;temperature;humidity
2783;DHT22;1399;47.072;15.452;2023-12-07T00:01:04;9.00;54.80
2783;DHT22;1399;47.072;15.452;2023-12-07T00:03:30;9.00;54.80
2783;DHT22;1399;47.072;15.452;2023-12-07T00:05:56;9.10;54.80
2783;DHT22;1399;47.072;15.452;2023-12-07T00:08:22;9.00;54.80
2783;DHT22;1399;47.072;15.452;2023-12-07T00:10:47;9.00;54.80
2783;DHT22;1399;47.072;15.452;2023-12-07T00:13:13;9.00;54.80
2783;DHT22;1399;47.072;15.452;2023-12-07T00:15:39;9.00;54.70
2783;DHT22;1399;47.072;15.452;2023-12-07T00:18:05;9.00;54.70
2783;DHT22;1399;47.072;15.452;2023-12-07T00:20:31;9.00;54.70
2783;DHT22;1399;47.072;15.452;2023-12-07T00:22:57;9.00;54.70
2783;DHT22;1399;47.072;15.452;2023-12-07T00:25:22;9.00;54.80
2783;DHT22;1399;47.072;15.452;2023-12-07T00:27:48;9.00;54.70
2783;DHT22;1399;47.072;15.452;2023-12-07T00:30:14;9.10;54.80
2783;DHT22;1399;47.072;15.452;2023-12-07T00:32:40;9.10;54.80
2783;DHT22;1399;47.072;15.452;2023-12-07T00:35:09;9.10;54.80
2783;DHT22;1399;47.072;15.452;2023-12-07T00:37:35;9.10;54.90
2783;DHT22;1399;47.072;15.452;2023-12-07T00:40:01;9.10;54.90
2783;DHT22;1399;47.072;15.452;2023-12-07T00:42:27;9.10;55.00
2783;DHT22;1399;47.072;15.452;2023-12-07T00:44:53;9.10;55.00
2783;DHT22;1399;47.072;15.452;2023-12-07T00:47:20;9.10;55.00
2783;DHT22;1399;47.072;15.452;2023-12-07T00:49:45;9.10;54.90
2783;DHT22;1399;47.072;15.452;2023-12-07T00:52:11;9.10;54.90
2783;DHT22;1399;47.072;15.452;2023-12-07T00:54:36;9.10;55.50
2783;DHT22;1399;47.072;15.452;2023-12-07T00:57:02;9.10;54.80
2783;DHT22;1399;47.072;15.452;2023-12-07T00:59:28;9.10;54.80
2783;DHT22;1399;47.072;15.452;2023-12-07T01:02:00;9.00;54.60
2783;DHT22;1399;47.072;15.452;2023-12-07T01:04:28;9.10;54.70
2783;DHT22;1399;47.072;15.452;2023-12-07T01:06:54;9.10;54.70
2783;DHT22;1399;47.072;15.452;2023-12-07T01:09:19;9.10;54.70
2783;DHT22;1399;47.072;15.452;2023-12-07T01:11:45;9.00;54.60
2783;DHT22;1399;47.072;15.452;2023-12-07T01:14:11;9.00;54.60
2783;DHT22;1399;47.072;15.452;2023-12-07T01:16:37;9.10;54.70
2783;DHT22;1399;47.072;15.452;2023-12-07T01:19:03;9.00;54.60
2783;DHT22;1399;47.072;15.452;2023-12-07T01:21:29;9.00;54.60
2783;DHT22;1399;47.072;15.452;2023-12-07T01:23:54;9.00;54.60
2783;DHT22;1399;47.072;15.452;2023-12-07T01:26:20;9.00;54.60
2783;DHT22;1399;47.072;15.452;2023-12-07T01:28:47;9.00;54.60
2783;DHT22;1399;47.072;15.452;2023-12-07T01:31:12;9.00;54.60
2783;DHT22;1399;47.072;15.452;2023-12-07T01:33:38;9.00;54.60
2783;DHT22;1399;47.072;15.452;2023-12-07T01:36:04;9.00;54.50
2783;DHT22;1399;47.072;15.452;2023-12-07T01:38:30;9.00;54.50
2783;DHT22;1399;47.072;15.452;2023-12-07T01:40:55;9.00;54.40
2783;DHT22;1399;47.072;15.452;2023-12-07T01:43:22;9.00;54.40
2783;DHT22;1399;47.072;15.452;2023-12-07T01:45:49;9.00;54.30
2783;DHT22;1399;47.072;15.452;2023-12-07T01:48:19;9.00;54.30
2783;DHT22;1399;47.072;15.452;2023-12-07T01:50:47;9.00;54.30
2783;DHT22;1399;47.072;15.452;2023-12-07T01:53:13;9.00;54.30
2783;DHT22;1399;47.072;15.452;2023-12-07T01:55:41;9.00;54.30
2783;DHT22;1399;47.072;15.452;2023-12-07T01:58:07;8.90;54.20
2783;DHT22;1399;47.072;15.452;2023-12-07T02:00:34;8.90;54.10
2783;DHT22;1399;47.072;15.452;2023-12-07T02:03:03;9.00;54.00
2783;DHT22;1399;47.072;15.452;2023-12-07T02:05:29;9.00;54.10
2783;DHT22;1399;47.072;15.452;2023-12-07T02:07:56;9.00;54.10
2783;DHT22;1399;47.072;15.452;2023-12-07T02:10:23;8.90;54.10
2783;DHT22;1399;47.072;15.452;2023-12-07T02:12:49;8.90;54.10
2783;DHT22;1399;47.072;15.452;2023-12-07T02:15:15;8.90;54.10
2783;DHT22;1399;47.072;15.452;2023-12-07T02:18:02;8.90;54.10
2783;DHT22;1399;47.072;15.452;2023-12-07T02:21:00;8.90;54.10
2783;DHT22;1399;47.072;15.452;2023-12-07T02:23:28;8.90;54.10
2783;DHT22;1399;47.072;15.452;2023-12-07T02:25:54;8.90;54.10
2783;DHT22;1399;47.072;15.452;2023-12-07T02:28:24;8.90;54.10
2783;DHT22;1399;47.072;15.452;2023-12-07T02:30:49;8.90;54.00
2783;DHT22;1399;47.072;15.452;2023-12-07T02:33:15;8.90;53.90
2783;DHT22;1399;47.072;15.452;2023-12-07T02:35:41;8.90;53.80
2783;DHT22;1399;47.072;15.452;2023-12-07T02:38:07;8.90;53.70
2783;DHT22;1399;47.072;15.452;2023-12-07T02:40:34;8.90;53.70
2783;DHT22;1399;47.072;15.452;2023-12-07T02:43:01;8.90;53.70
2783;DHT22;1399;47.072;15.452;2023-12-07T02:45:27;8.90;53.70
2783;DHT22;1399;47.072;15.452;2023-12-07T02:47:53;8.90;53.70
2783;DHT22;1399;47.072;15.452;2023-12-07T02:50:19;8.90;53.60
2783;DHT22;1399;47.072;15.452;2023-12-07T02:52:46;8.90;53.60
2783;DHT22;1399;47.072;15.452;2023-12-07T02:55:11;8.90;53.60
2783;DHT22;1399;47.072;15.452;2023-12-07T03:00:59;8.90;53.60
2783;DHT22;1399;47.072;15.452;2023-12-07T03:03:25;8.90;53.50
2783;DHT22;1399;47.072;15.452;2023-12-07T03:05:51;8.90;53.50
2783;DHT22;1399;47.072;15.452;2023-12-07T03:08:17;8.90;53.40
2783;DHT22;1399;47.072;15.452;2023-12-07T03:10:42;8.90;53.50
2783;DHT22;1399;47.072;15.452;2023-12-07T03:13:08;8.90;53.50
2783;DHT22;1399;47.072;15.452;2023-12-07T03:15:33;8.90;53.40
2783;DHT22;1399;47.072;15.452;2023-12-07T03:17:59;8.90;53.30
2783;DHT22;1399;47.072;15.452;2023-12-07T03:20:25;8.80;53.30
2783;DHT22;1399;47.072;15.452;2023-12-07T03:22:50;8.90;53.40
2783;DHT22;1399;47.072;15.452;2023-12-07T03:25:16;8.80;53.30
2783;DHT22;1399;47.072;15.452;2023-12-07T03:27:42;8.80;53.40
2783;DHT22;1399;47.072;15.452;2023-12-07T03:30:08;8.80;53.30
2783;DHT22;1399;47.072;15.452;2023-12-07T03:32:33;8.80;53.20
2783;DHT22;1399;47.072;15.452;2023-12-07T03:34:59;8.80;53.10
2783;DHT22;1399;47.072;15.452;2023-12-07T03:37:25;8.80;53.10
2783;DHT22;1399;47.072;15.452;2023-12-07T03:39:50;8.80;53.00
2783;DHT22;1399;47.072;15.452;2023-12-07T03:42:16;8.80;53.00
2783;DHT22;1399;47.072;15.452;2023-12-07T03:44:42;8.80;53.00
2783;DHT22;1399;47.072;15.452;2023-12-07T03:47:09;8.80;53.00
2783;DHT22;1399;47.072;15.452;2023-12-07T03:49:35;8.80;53.00
2783;DHT22;1399;47.072;15.452;2023-12-07T03:52:01;8.80;53.70
2783;DHT22;1399;47.072;15.452;2023-12-07T03:54:27;8.80;53.10
2783;DHT22;1399;47.072;15.452;2023-12-07T03:56:52;8.80;53.00
2783;DHT22;1399;47.072;15.452;2023-12-07T03:59:18;8.80;53.00
2783;DHT22;1399;47.072;15.452;2023-12-07T04:01:44;8.80;53.00
2783;DHT22;1399;47.072;15.452;2023-12-07T04:04:09;8.80;52.90
2783;DHT22;1399;47.072;15.452;2023-12-07T04:06:35;8.80;52.80
2783;DHT22;1399;47.072;15.452;2023-12-07T04:09:01;8.80;52.80
2783;DHT22;1399;47.072;15.452;2023-12-07T04:11:28;8.80;52.90
2783;DHT22;1399;47.072;15.452;2023-12-07T04:13:53;8.70;52.70
2783;DHT22;1399;47.072;15.452;2023-12-07T04:16:19;8.70;52.80
2783;DHT22;1399;47.072;15.452;2023-12-07T04:18:45;8.70;52.80
2783;DHT22;1399;47.072;15.452;2023-12-07T04:21:10;8.70;52.80
2783;DHT22;1399;47.072;15.452;2023-12-07T04:23:36;8.70;52.70
2783;DHT22;1399;47.072;15.452;2023-12-07T04:26:02;8.70;52.70
2783;DHT22;1399;47.072;15.452;2023-12-07T04:28:27;8.70;52.60
2783;DHT22;1399;47.072;15.452;2023-12-07T04:30:53;8.70;52.60
2783;DHT22;1399;47.072;15.452;2023-12-07T04:33:19;8.70;52.60
2783;DHT22;1399;47.072;15.452;2023-12-07T04:35:45;8.70;52.60
2783;DHT22;1399;47.072;15.452;2023-12-07T04:38:11;8.60;52.50
2783;DHT22;1399;47.072;15.452;2023-12-07T04:40:36;8.60;52.40
2783;DHT22;1399;47.072;15.452;2023-12-07T04:43:03;8.60;52.50
2783;DHT22;1399;47.072;15.452;2023-12-07T04:45:28;8.60;52.50
2783;DHT22;1399;47.072;15.452;2023-12-07T04:47:54;8.60;52.50
2783;DHT22;1399;47.072;15.452;2023-12-07T04:50:20;8.60;52.50
2783;DHT22;1399;47.072;15.452;2023-12-07T04:52:45;8.60;52.50
2783;DHT22;1399;47.072;15.452;2023-12-07T04:55:11;8.60;52.50
2783;DHT22;1399;47.072;15.452;2023-12-07T04:57:37;8.60;52.50
2783;DHT22;1399;47.072;15.452;2023-12-07T05:00:03;8.60;52.40
2783;DHT22;1399;47.072;15.452;2023-12-07T05:02:32;8.60;52.40
2783;DHT22;1399;47.072;15.452;2023-12-07T05:04:57;8.60;52.40
2783;DHT22;1399;47.072;15.452;2023-12-07T05:07:23;8.60;52.30
2783;DHT22;1399;47.072;15.452;2023-12-07T05:09:49;8.60;52.30
2783;DHT22;1399;47.072;15.452;2023-12-07T05:12:17;8.60;52.30
2783;DHT22;1399;47.072;15.452;2023-12-07T05:14:42;8.60;52.20
2783;DHT22;1399;47.072;15.452;2023-12-07T05:17:08;8.60;52.20
2783;DHT22;1399;47.072;15.452;2023-12-07T05:19:34;8.60;52.10
2783;DHT22;1399;47.072;15.452;2023-12-07T05:22:00;8.60;52.10
2783;DHT22;1399;47.072;15.452;2023-12-07T05:24:25;8.60;52.10
2783;DHT22;1399;47.072;15.452;2023-12-07T05:26:51;8.60;52.00
2783;DHT22;1399;47.072;15.452;2023-12-07T05:29:17;8.60;52.00
2783;DHT22;1399;47.072;15.452;2023-12-07T05:31:43;8.60;52.00
2783;DHT22;1399;47.072;15.452;2023-12-07T05:34:09;8.50;51.90
2783;DHT22;1399;47.072;15.452;2023-12-07T05:36:35;8.60;51.90
2783;DHT22;1399;47.072;15.452;2023-12-07T05:39:01;8.60;52.00
2783;DHT22;1399;47.072;15.452;2023-12-07T05:41:26;8.60;51.90
2783;DHT22;1399;47.072;15.452;2023-12-07T05:43:52;8.60;51.90
2783;DHT22;1399;47.072;15.452;2023-12-07T05:46:19;8.60;51.80
2783;DHT22;1399;47.072;15.452;2023-12-07T05:48:45;8.60;51.80
2783;DHT22;1399;47.072;15.452;2023-12-07T05:51:17;8.50;51.60
2783;DHT22;1399;47.072;15.452;2023-12-07T05:53:44;8.50;51.60
2783;DHT22;1399;47.072;15.452;2023-12-07T05:56:10;8.50;51.50
2783;DHT22;1399;47.072;15.452;2023-12-07T05:58:37;8.50;51.40
2783;DHT22;1399;47.072;15.452;2023-12-07T06:01:03;8.50;51.40
2783;DHT22;1399;47.072;15.452;2023-12-07T06:03:29;8.50;51.40
2783;DHT22;1399;47.072;15.452;2023-12-07T06:05:55;8.50;51.40
2783;DHT22;1399;47.072;15.452;2023-12-07T06:08:21;8.50;51.40
2783;DHT22;1399;47.072;15.452;2023-12-07T06:10:47;8.50;51.40
2783;DHT22;1399;47.072;15.452;2023-12-07T06:13:13;8.50;51.40
2783;DHT22;1399;47.072;15.452;2023-12-07T06:15:39;8.50;51.30
2783;DHT22;1399;47.072;15.452;2023-12-07T06:18:05;8.50;51.20
2783;DHT22;1399;47.072;15.452;2023-12-07T06:20:31;8.50;51.20
2783;DHT22;1399;47.072;15.452;2023-12-07T06:22:57;8.40;51.00
2783;DHT22;1399;47.072;15.452;2023-12-07T06:25:23;8.40;51.00
2783;DHT22;1399;47.072;15.452;2023-12-07T06:27:49;8.40;50.90
2783;DHT22;1399;47.072;15.452;2023-12-07T06:30:15;8.40;50.90
2783;DHT22;1399;47.072;15.452;2023-12-07T06:32:42;8.40;50.90
2783;DHT22;1399;47.072;15.452;2023-12-07T06:35:08;8.40;50.90
2783;DHT22;1399;47.072;15.452;2023-12-07T06:37:33;8.40;50.90
2783;DHT22;1399;47.072;15.452;2023-12-07T06:39:59;8.40;50.80
2783;DHT22;1399;47.072;15.452;2023-12-07T06:42:26;8.40;50.80
2783;DHT22;1399;47.072;15.452;2023-12-07T06:44:52;8.40;50.80
2783;DHT22;1399;47.072;15.452;2023-12-07T06:47:18;8.40;50.80
2783;DHT22;1399;47.072;15.452;2023-12-07T06:49:44;8.40;50.80
2783;DHT22;1399;47.072;15.452;2023-12-07T06:52:11;8.40;50.80
2783;DHT22;1399;47.072;15.452;2023-12-07T06:54:37;8.40;50.70
2783;DHT22;1399;47.072;15.452;2023-12-07T06:57:04;8.40;50.70
2783;DHT22;1399;47.072;15.452;2023-12-07T06:59:30;8.30;50.60
2783;DHT22;1399;47.072;15.452;2023-12-07T07:01:55;8.30;50.70
2783;DHT22;1399;47.072;15.452;2023-12-07T07:04:21;8.30;50.60
2783;DHT22;1399;47.072;15.452;2023-12-07T07:06:47;8.30;50.60
2783;DHT22;1399;47.072;15.452;2023-12-07T07:09:12;8.30;50.60
2783;DHT22;1399;47.072;15.452;2023-12-07T07:11:38;8.30;50.50
2783;DHT22;1399;47.072;15.452;2023-12-07T07:14:04;8.30;50.50
2783;DHT22;1399;47.072;15.452;2023-12-07T07:16:30;8.30;50.50
2783;DHT22;1399;47.072;15.452;2023-12-07T07:18:56;8.30;50.50
2783;DHT22;1399;47.072;15.452;2023-12-07T07:21:22;8.30;50.50
2783;DHT22;1399;47.072;15.452;2023-12-07T07:23:47;8.30;50.50
2783;DHT22;1399;47.072;15.452;2023-12-07T07:26:13;8.30;50.50
2783;DHT22;1399;47.072;15.452;2023-12-07T07:28:45;8.30;50.50
2783;DHT22;1399;47.072;15.452;2023-12-07T07:31:11;8.30;50.60
2783;DHT22;1399;47.072;15.452;2023-12-07T07:33:36;8.30;50.60
2783;DHT22;1399;47.072;15.452;2023-12-07T07:36:02;8.30;50.60
2783;DHT22;1399;47.072;15.452;2023-12-07T07:38:28;8.30;50.60
2783;DHT22;1399;47.072;15.452;2023-12-07T07:40:54;8.30;50.60
2783;DHT22;1399;47.072;15.452;2023-12-07T07:43:19;8.30;50.60
2783;DHT22;1399;47.072;15.452;2023-12-07T07:45:45;8.30;50.60
2783;DHT22;1399;47.072;15.452;2023-12-07T07:48:11;8.30;50.60
2783;DHT22;1399;47.072;15.452;2023-12-07T07:50:37;8.30;50.70
2783;DHT22;1399;47.072;15.452;2023-12-07T07:53:03;8.30;50.70
2783;DHT22;1399;47.072;15.452;2023-12-07T07:55:29;8.30;50.80
2783;DHT22;1399;47.072;15.452;2023-12-07T07:57:56;8.30;50.90
2783;DHT22;1399;47.072;15.452;2023-12-07T08:00:22;8.30;50.90
2783;DHT22;1399;47.072;15.452;2023-12-07T08:02:51;8.30;50.90
2783;DHT22;1399;47.072;15.452;2023-12-07T08:05:17;8.30;50.90
2783;DHT22;1399;47.072;15.452;2023-12-07T08:07:43;8.30;50.90
2783;DHT22;1399;47.072;15.452;2023-12-07T08:10:08;8.30;51.00
2783;DHT22;1399;47.072;15.452;2023-12-07T08:12:34;8.30;50.90
2783;DHT22;1399;47.072;15.452;2023-12-07T08:15:00;8.30;51.00
2783;DHT22;1399;47.072;15.452;2023-12-07T08:17:26;8.30;51.00
2783;DHT22;1399;47.072;15.452;2023-12-07T08:19:52;8.30;51.10
2783;DHT22;1399;47.072;15.452;2023-12-07T08:22:18;8.30;51.20
2783;DHT22;1399;47.072;15.452;2023-12-07T08:24:44;8.30;51.30
2783;DHT22;1399;47.072;15.452;2023-12-07T08:27:10;8.30;51.30
2783;DHT22;1399;47.072;15.452;2023-12-07T08:29:36;8.30;51.40
2783;DHT22;1399;47.072;15.452;2023-12-07T08:32:02;8.30;51.50
2783;DHT22;1399;47.072;15.452;2023-12-07T08:34:28;8.30;51.60
2783;DHT22;1399;47.072;15.452;2023-12-07T08:36:54;8.30;51.70
2783;DHT22;1399;47.072;15.452;2023-12-07T08:39:20;8.30;51.80
2783;DHT22;1399;47.072;15.452;2023-12-07T08:41:45;8.40;52.00
2783;DHT22;1399;47.072;15.452;2023-12-07T08:44:11;8.40;52.10
2783;DHT22;1399;47.072;15.452;2023-12-07T08:46:37;8.40;52.30
2783;DHT22;1399;47.072;15.452;2023-12-07T08:49:03;8.40;52.40
2783;DHT22;1399;47.072;15.452;2023-12-07T08:51:29;8.40;52.50
2783;DHT22;1399;47.072;15.452;2023-12-07T08:53:55;8.40;52.60
2783;DHT22;1399;47.072;15.452;2023-12-07T08:56:21;8.40;52.70
2783;DHT22;1399;47.072;15.452;2023-12-07T08:58:46;8.50;52.90
2783;DHT22;1399;47.072;15.452;2023-12-07T09:01:12;8.50;53.00
2783;DHT22;1399;47.072;15.452;2023-12-07T09:03:38;8.50;53.20
2783;DHT22;1399;47.072;15.452;2023-12-07T09:06:04;8.50;53.30
2783;DHT22;1399;47.072;15.452;2023-12-07T09:08:30;8.60;53.40
2783;DHT22;1399;47.072;15.452;2023-12-07T09:10:56;8.60;53.50
2783;DHT22;1399;47.072;15.452;2023-12-07T09:13:22;8.60;53.50
2783;DHT22;1399;47.072;15.452;2023-12-07T09:15:47;8.60;53.70
2783;DHT22;1399;47.072;15.452;2023-12-07T09:18:13;8.70;53.90
2783;DHT22;1399;47.072;15.452;2023-12-07T09:20:39;8.70;53.90
2783;DHT22;1399;47.072;15.452;2023-12-07T09:23:13;8.70;54.00
2783;DHT22;1399;47.072;15.452;2023-12-07T09:25:40;8.70;54.10
2783;DHT22;1399;47.072;15.452;2023-12-07T09:28:06;8.80;54.20
2783;DHT22;1399;47.072;15.452;2023-12-07T09:30:32;8.70;54.20
2783;DHT22;1399;47.072;15.452;2023-12-07T09:33:00;8.80;54.30
2783;DHT22;1399;47.072;15.452;2023-12-07T09:35:25;8.80;54.30
2783;DHT22;1399;47.072;15.452;2023-12-07T09:37:51;8.80;54.30
2783;DHT22;1399;47.072;15.452;2023-12-07T09:40:23;8.90;54.20
2783;DHT22;1399;47.072;15.452;2023-12-07T09:42:50;8.90;53.70
2783;DHT22;1399;47.072;15.452;2023-12-07T09:45:17;8.90;53.00
2783;DHT22;1399;47.072;15.452;2023-12-07T09:47:53;8.90;52.70
2783;DHT22;1399;47.072;15.452;2023-12-07T09:50:21;8.90;52.50
2783;DHT22;1399;47.072;15.452;2023-12-07T09:52:51;9.00;52.30
2783;DHT22;1399;47.072;15.452;2023-12-07T09:55:18;9.00;52.10
2783;DHT22;1399;47.072;15.452;2023-12-07T09:57:45;9.00;51.70
2783;DHT22;1399;47.072;15.452;2023-12-07T10:00:12;9.00;51.50
2783;DHT22;1399;47.072;15.452;2023-12-07T10:02:40;9.10;51.40
2783;DHT22;1399;47.072;15.452;2023-12-07T10:05:10;9.10;51.10
2783;DHT22;1399;47.072;15.452;2023-12-07T10:07:40;9.10;50.90
2783;DHT22;1399;47.072;15.452;2023-12-07T10:10:07;9.10;50.60
2783;DHT22;1399;47.072;15.452;2023-12-07T10:12:34;9.20;50.30
2783;DHT22;1399;47.072;15.452;2023-12-07T10:15:19;9.20;49.80
2783;DHT22;1399;47.072;15.452;2023-12-07T10:17:46;9.20;49.40
2783;DHT22;1399;47.072;15.452;2023-12-07T10:20:18;9.20;49.20
2783;DHT22;1399;47.072;15.452;2023-12-07T10:22:45;9.30;48.90
2783;DHT22;1399;47.072;15.452;2023-12-07T10:25:12;9.30;48.60
2783;DHT22;1399;47.072;15.452;2023-12-07T10:27:40;9.30;48.40
2783;DHT22;1399;47.072;15.452;2023-12-07T10:30:08;9.30;47.60
2783;DHT22;1399;47.072;15.452;2023-12-07T10:32:39;9.30;47.10
2783;DHT22;1399;47.072;15.452;2023-12-07T10:35:08;9.40;47.10
2783;DHT22;1399;47.072;15.452;2023-12-07T10:37:35;9.40;46.60
2783;DHT22;1399;47.072;15.452;2023-12-07T10:40:01;9.40;46.50
2783;DHT22;1399;47.072;15.452;2023-12-07T10:42:30;9.40;46.40
2783;DHT22;1399;47.072;15.452;2023-12-07T10:44:58;9.40;46.20
2783;DHT22;1399;47.072;15.452;2023-12-07T10:47:27;9.40;45.70
2783;DHT22;1399;47.072;15.452;2023-12-07T10:49:54;9.50;45.50
2783;DHT22;1399;47.072;15.452;2023-12-07T10:52:24;9.50;45.40
2783;DHT22;1399;47.072;15.452;2023-12-07T10:54:57;9.50;45.40
2783;DHT22;1399;47.072;15.452;2023-12-07T10:57:30;9.50;45.30
2783;DHT22;1399;47.072;15.452;2023-12-07T10:59:59;9.60;44.70
2783;DHT22;1399;47.072;15.452;2023-12-07T11:02:27;9.60;44.10
2783;DHT22;1399;47.072;15.452;2023-12-07T11:04:55;9.60;43.80
2783;DHT22;1399;47.072;15.452;2023-12-07T11:07:25;9.60;43.50
2783;DHT22;1399;47.072;15.452;2023-12-07T11:10:03;9.60;43.60
2783;DHT22;1399;47.072;15.452;2023-12-07T11:12:33;9.60;43.80
2783;DHT22;1399;47.072;15.452;2023-12-07T11:15:01;9.60;43.30
2783;DHT22;1399;47.072;15.452;2023-12-07T11:17:27;9.60;42.90
2783;DHT22;1399;47.072;15.452;2023-12-07T11:19:52;9.70;42.90
2783;DHT22;1399;47.072;15.452;2023-12-07T11:22:20;9.70;43.00
2783;DHT22;1399;47.072;15.452;2023-12-07T11:24:58;9.70;42.60
2783;DHT22;1399;47.072;15.452;2023-12-07T11:27:29;9.70;42.10
2783;DHT22;1399;47.072;15.452;2023-12-07T11:29:58;9.70;41.70
2783;DHT22;1399;47.072;15.452;2023-12-07T11:32:26;9.70;41.30
2783;DHT22;1399;47.072;15.452;2023-12-07T11:34:53;9.80;41.40
2783;DHT22;1399;47.072;15.452;2023-12-07T11:37:19;9.70;41.30
2783;DHT22;1399;47.072;15.452;2023-12-07T11:39:45;9.70;41.30
2783;DHT22;1399;47.072;15.452;2023-12-07T11:42:14;9.70;41.20
2783;DHT22;1399;47.072;15.452;2023-12-07T11:44:41;9.80;41.50
2783;DHT22;1399;47.072;15.452;2023-12-07T11:47:08;9.80;41.50
2783;DHT22;1399;47.072;15.452;2023-12-07T11:49:34;9.80;41.20
2783;DHT22;1399;47.072;15.452;2023-12-07T11:52:01;9.80;41.20
2783;DHT22;1399;47.072;15.452;2023-12-07T11:54:37;9.80;41.10
2783;DHT22;1399;47.072;15.452;2023-12-07T11:57:03;9.80;41.00
2783;DHT22;1399;47.072;15.452;2023-12-07T11:59:30;9.80;40.80
2783;DHT22;1399;47.072;15.452;2023-12-07T12:01:59;9.80;40.30
2783;DHT22;1399;47.072;15.452;2023-12-07T12:04:25;9.90;40.30
2783;DHT22;1399;47.072;15.452;2023-12-07T12:06:50;9.90;40.00
2783;DHT22;1399;47.072;15.452;2023-12-07T12:09:16;9.90;39.40
2783;DHT22;1399;47.072;15.452;2023-12-07T12:11:48;9.90;39.50
2783;DHT22;1399;47.072;15.452;2023-12-07T12:14:15;9.90;39.60
2783;DHT22;1399;47.072;15.452;2023-12-07T12:16:42;9.90;39.50
2783;DHT22;1399;47.072;15.452;2023-12-07T12:19:08;9.90;39.50
2783;DHT22;1399;47.072;15.452;2023-12-07T12:21:38;9.90;39.40
2783;DHT22;1399;47.072;15.452;2023-12-07T12:24:07;9.90;39.30
2783;DHT22;1399;47.072;15.452;2023-12-07T12:26:35;9.90;39.40
2783;DHT22;1399;47.072;15.452;2023-12-07T12:29:02;9.90;39.50
2783;DHT22;1399;47.072;15.452;2023-12-07T12:31:29;9.90;39.30
2783;DHT22;1399;47.072;15.452;2023-12-07T12:33:55;9.90;38.80
2783;DHT22;1399;47.072;15.452;2023-12-07T12:36:21;9.90;38.60
2783;DHT22;1399;47.072;15.452;2023-12-07T12:38:49;9.90;38.60
2783;DHT22;1399;47.072;15.452;2023-12-07T12:41:19;9.90;38.80
2783;DHT22;1399;47.072;15.452;2023-12-07T12:43:46;9.90;38.80
2783;DHT22;1399;47.072;15.452;2023-12-07T12:46:14;9.90;38.70
2783;DHT22;1399;47.072;15.452;2023-12-07T12:48:59;9.90;38.60
2783;DHT22;1399;47.072;15.452;2023-12-07T12:51:27;10.00;37.70
2783;DHT22;1399;47.072;15.452;2023-12-07T12:53:53;10.00;37.80
2783;DHT22;1399;47.072;15.452;2023-12-07T12:56:20;10.00;37.80
2783;DHT22;1399;47.072;15.452;2023-12-07T12:58:50;10.00;37.40
2783;DHT22;1399;47.072;15.452;2023-12-07T13:01:16;10.00;37.20
2783;DHT22;1399;47.072;15.452;2023-12-07T13:10:30;10.00;36.70
2783;DHT22;1399;47.072;15.452;2023-12-07T13:12:57;10.00;36.80
2783;DHT22;1399;47.072;15.452;2023-12-07T13:15:22;10.00;36.80
2783;DHT22;1399;47.072;15.452;2023-12-07T13:17:48;10.00;36.80
2783;DHT22;1399;47.072;15.452;2023-12-07T13:20:14;10.00;36.70
2783;DHT22;1399;47.072;15.452;2023-12-07T13:22:41;10.00;36.50
2783;DHT22;1399;47.072;15.452;2023-12-07T13:25:09;10.00;36.00
2783;DHT22;1399;47.072;15.452;2023-12-07T13:27:35;10.00;36.00
2783;DHT22;1399;47.072;15.452;2023-12-07T13:30:02;10.00;36.10
2783;DHT22;1399;47.072;15.452;2023-12-07T13:32:32;10.00;36.10
2783;DHT22;1399;47.072;15.452;2023-12-07T13:34:59;10.00;36.00
2783;DHT22;1399;47.072;15.452;2023-12-07T13:37:25;10.10;36.20
2783;DHT22;1399;47.072;15.452;2023-12-07T13:39:51;10.00;36.30
2783;DHT22;1399;47.072;15.452;2023-12-07T13:42:23;10.00;36.30
2783;DHT22;1399;47.072;15.452;2023-12-07T13:44:53;10.00;36.00
2783;DHT22;1399;47.072;15.452;2023-12-07T13:47:19;10.00;36.20
2783;DHT22;1399;47.072;15.452;2023-12-07T13:49:45;10.00;36.20
2783;DHT22;1399;47.072;15.452;2023-12-07T13:52:11;10.00;36.20
2783;DHT22;1399;47.072;15.452;2023-12-07T13:54:38;10.10;36.20
2783;DHT22;1399;47.072;15.452;2023-12-07T13:57:04;10.10;36.10
2783;DHT22;1399;47.072;15.452;2023-12-07T13:59:30;10.10;36.10
2783;DHT22;1399;47.072;15.452;2023-12-07T14:01:55;10.10;36.20
2783;DHT22;1399;47.072;15.452;2023-12-07T14:04:21;10.10;36.30
2783;DHT22;1399;47.072;15.452;2023-12-07T14:06:48;10.10;36.20
2783;DHT22;1399;47.072;15.452;2023-12-07T14:09:13;10.10;36.20
2783;DHT22;1399;47.072;15.452;2023-12-07T14:11:39;10.10;36.10
2783;DHT22;1399;47.072;15.452;2023-12-07T14:14:05;10.10;36.00
2783;DHT22;1399;47.072;15.452;2023-12-07T14:16:30;10.10;36.00
2783;DHT22;1399;47.072;15.452;2023-12-07T14:18:56;10.10;36.00
2783;DHT22;1399;47.072;15.452;2023-12-07T14:21:22;10.10;36.30
2783;DHT22;1399;47.072;15.452;2023-12-07T14:23:49;10.10;36.40
2783;DHT22;1399;47.072;15.452;2023-12-07T14:26:15;10.10;36.60
2783;DHT22;1399;47.072;15.452;2023-12-07T14:28:40;10.10;36.70
2783;DHT22;1399;47.072;15.452;2023-12-07T14:31:07;10.10;36.90
2783;DHT22;1399;47.072;15.452;2023-12-07T14:33:39;10.10;36.80
2783;DHT22;1399;47.072;15.452;2023-12-07T14:36:06;10.10;36.80
2783;DHT22;1399;47.072;15.452;2023-12-07T14:38:32;10.10;36.90
2783;DHT22;1399;47.072;15.452;2023-12-07T14:40:58;10.10;36.80
2783;DHT22;1399;47.072;15.452;2023-12-07T14:43:24;10.10;36.60
2783;DHT22;1399;47.072;15.452;2023-12-07T14:45:49;10.10;36.60
2783;DHT22;1399;47.072;15.452;2023-12-07T14:48:15;10.10;36.60
2783;DHT22;1399;47.072;15.452;2023-12-07T14:50:43;10.10;36.40
2783;DHT22;1399;47.072;15.452;2023-12-07T14:53:09;10.10;36.40
2783;DHT22;1399;47.072;15.452;2023-12-07T14:55:36;10.00;36.40
2783;DHT22;1399;47.072;15.452;2023-12-07T14:58:01;10.10;36.50
2783;DHT22;1399;47.072;15.452;2023-12-07T15:00:27;10.10;36.40
2783;DHT22;1399;47.072;15.452;2023-12-07T15:02:54;10.00;36.40
2783;DHT22;1399;47.072;15.452;2023-12-07T15:05:19;10.00;36.50
2783;DHT22;1399;47.072;15.452;2023-12-07T15:07:45;10.00;36.60
2783;DHT22;1399;47.072;15.452;2023-12-07T15:10:11;10.00;36.70
2783;DHT22;1399;47.072;15.452;2023-12-07T15:12:36;10.00;36.70
2783;DHT22;1399;47.072;15.452;2023-12-07T15:15:02;10.00;36.70
2783;DHT22;1399;47.072;15.452;2023-12-07T15:17:31;10.00;36.80
2783;DHT22;1399;47.072;15.452;2023-12-07T15:19:57;10.00;37.00
2783;DHT22;1399;47.072;15.452;2023-12-07T15:22:23;10.00;37.20
2783;DHT22;1399;47.072;15.452;2023-12-07T15:24:48;10.00;37.10
2783;DHT22;1399;47.072;15.452;2023-12-07T15:27:14;10.00;37.80
2783;DHT22;1399;47.072;15.452;2023-12-07T15:29:40;10.00;37.30
2783;DHT22;1399;47.072;15.452;2023-12-07T15:32:06;9.90;38.20
2783;DHT22;1399;47.072;15.452;2023-12-07T15:34:32;9.90;38.30
2783;DHT22;1399;47.072;15.452;2023-12-07T15:36:58;9.90;38.20
2783;DHT22;1399;47.072;15.452;2023-12-07T15:39:24;9.90;38.20
2783;DHT22;1399;47.072;15.452;2023-12-07T15:41:49;9.90;38.20
2783;DHT22;1399;47.072;15.452;2023-12-07T15:44:15;9.90;38.20
2783;DHT22;1399;47.072;15.452;2023-12-07T15:46:41;9.90;38.30
2783;DHT22;1399;47.072;15.452;2023-12-07T15:49:06;9.90;38.40
2783;DHT22;1399;47.072;15.452;2023-12-07T15:51:32;9.80;38.50
2783;DHT22;1399;47.072;15.452;2023-12-07T15:53:58;9.80;38.70
2783;DHT22;1399;47.072;15.452;2023-12-07T15:56:24;9.80;38.80
2783;DHT22;1399;47.072;15.452;2023-12-07T15:58:51;9.80;38.90
2783;DHT22;1399;47.072;15.452;2023-12-07T16:01:16;9.80;39.00
2783;DHT22;1399;47.072;15.452;2023-12-07T16:03:42;9.80;39.20
2783;DHT22;1399;47.072;15.452;2023-12-07T16:06:08;9.80;39.40